createdAt,value
2022-09-10T00:00:54.349Z,98854.00
2022-09-10T00:02:27.705Z,98851.00
2022-09-10T00:04:02.735Z,98844.00
2022-09-10T00:05:40.339Z,98850.00
2022-09-10T00:07:14.027Z,98849.00
2022-09-10T00:08:49.492Z,98844.00
2022-09-10T00:10:23.157Z,98834.00
2022-09-10T00:11:56.620Z,98837.00
2022-09-10T00:13:29.206Z,98836.00
2022-09-10T00:15:02.619Z,98831.00
2022-09-10T00:16:35.091Z,98832.00
2022-09-10T00:18:09.617Z,98831.00
2022-09-10T00:19:44.224Z,98838.00
2022-09-10T00:21:20.974Z,98828.00
2022-09-10T00:22:55.229Z,98834.00
2022-09-10T00:24:29.815Z,98834.00
2022-09-10T00:26:14.916Z,98841.00
2022-09-10T00:27:48.172Z,98834.00
2022-09-10T00:29:21.677Z,98836.00
2022-09-10T00:30:55.494Z,98836.00
2022-09-10T00:32:28.732Z,98835.00
2022-09-10T00:34:04.128Z,98834.00
2022-09-10T00:35:40.230Z,98845.00
2022-09-10T00:37:14.419Z,98848.00
2022-09-10T00:38:48.642Z,98833.00
2022-09-10T00:40:24.788Z,98840.00
2022-09-10T00:41:58.545Z,98831.00
2022-09-10T00:43:52.017Z,98841.00
2022-09-10T00:45:28.453Z,98842.00
2022-09-10T00:47:02.052Z,98842.00
2022-09-10T00:48:34.482Z,98841.00
2022-09-10T00:50:21.297Z,98836.00
2022-09-10T00:51:55.549Z,98844.00
2022-09-10T00:53:29.516Z,98844.00
2022-09-10T00:55:03.560Z,98840.00
2022-09-10T00:56:39.041Z,98845.00
2022-09-10T00:58:15.753Z,98838.00
2022-09-10T00:59:56.884Z,98842.00
2022-09-10T01:01:38.608Z,98835.00
2022-09-10T01:03:24.889Z,98845.00
2022-09-10T01:05:02.979Z,98837.00
2022-09-10T01:06:40.988Z,98827.00
2022-09-10T01:08:20.710Z,98834.00
2022-09-10T01:09:56.334Z,98830.00
2022-09-10T01:12:04.375Z,98834.00
2022-09-10T01:14:17.104Z,98834.00
2022-09-10T01:16:05.721Z,98828.00
2022-09-10T01:17:59.551Z,98828.00
2022-09-10T01:20:26.834Z,98824.00
2022-09-10T01:22:15.748Z,98825.00
2022-09-10T01:24:44.556Z,98817.00
2022-09-10T01:26:36.451Z,98823.00
2022-09-10T01:28:20.320Z,98818.00
2022-09-10T01:30:03.309Z,98819.00
2022-09-10T01:31:47.904Z,98822.00
2022-09-10T01:33:31.313Z,98820.00
2022-09-10T01:35:16.034Z,98824.00
2022-09-10T01:36:54.625Z,98817.00
2022-09-10T01:38:32.696Z,98825.00
2022-09-10T01:40:09.447Z,98820.00
2022-09-10T01:41:43.881Z,98826.00
2022-09-10T01:43:18.754Z,98814.00
2022-09-10T01:44:58.243Z,98819.00
2022-09-10T01:46:50.012Z,98830.00
2022-09-10T01:48:47.847Z,98822.00
2022-09-10T01:50:30.101Z,98821.00
2022-09-10T01:52:25.745Z,98823.00
2022-09-10T01:54:24.681Z,98826.00
2022-09-10T01:56:12.707Z,98825.00
2022-09-10T01:57:56.552Z,98822.00
2022-09-10T01:59:51.384Z,98816.00
2022-09-10T02:01:32.830Z,98815.00
2022-09-10T02:03:16.328Z,98818.00
2022-09-10T02:04:55.834Z,98822.00
2022-09-10T02:06:36.158Z,98826.00
2022-09-10T02:08:16.500Z,98816.00
2022-09-10T02:09:50.658Z,98826.00
2022-09-10T02:11:24.896Z,98823.00
2022-09-10T02:12:59.578Z,98820.00
2022-09-10T02:14:54.167Z,98823.00
2022-09-10T02:16:38.493Z,98826.00
2022-09-10T02:18:11.928Z,98826.00
2022-09-10T02:19:48.782Z,98834.00
2022-09-10T02:21:22.981Z,98830.00
2022-09-10T02:23:00.635Z,98824.00
2022-09-10T02:24:34.012Z,98827.00
2022-09-10T02:26:07.948Z,98819.00
2022-09-10T02:27:43.616Z,98828.00
2022-09-10T02:29:19.186Z,98820.00
2022-09-10T02:30:53.178Z,98826.00
2022-09-10T02:32:26.723Z,98826.00
2022-09-10T02:34:00.173Z,98818.00
2022-09-10T02:35:35.483Z,98828.00
2022-09-10T02:37:08.876Z,98830.00
2022-09-10T02:38:43.189Z,98828.00
2022-09-10T02:40:18.941Z,98827.00
2022-09-10T02:41:51.659Z,98833.00
2022-09-10T02:43:24.927Z,98823.00
2022-09-10T02:44:57.236Z,98834.00
2022-09-10T02:46:34.001Z,98828.00
2022-09-10T02:48:07.847Z,98823.00
2022-09-10T02:49:41.025Z,98825.00
2022-09-10T02:51:14.800Z,98832.00
2022-09-10T02:52:47.372Z,98827.00
2022-09-10T02:54:21.369Z,98834.00
2022-09-10T02:55:55.277Z,98836.00
2022-09-10T02:57:28.133Z,98830.00
2022-09-10T02:59:01.954Z,98835.00
2022-09-10T03:00:36.411Z,98825.00
2022-09-10T03:02:11.084Z,98831.00
2022-09-10T03:03:45.039Z,98831.00
2022-09-10T03:05:18.759Z,98825.00
2022-09-10T03:06:53.431Z,98834.00
2022-09-10T03:08:27.468Z,98837.00
2022-09-10T03:10:00.685Z,98820.00
2022-09-10T03:11:40.043Z,98826.00
2022-09-10T03:13:13.618Z,98827.00
2022-09-10T03:14:47.251Z,98829.00
2022-09-10T03:16:21.546Z,98819.00
2022-09-10T03:17:56.780Z,98828.00
2022-09-10T03:19:31.269Z,98826.00
2022-09-10T03:21:14.788Z,98826.00
2022-09-10T03:22:47.569Z,98828.00
2022-09-10T03:24:22.494Z,98834.00
2022-09-10T03:26:00.493Z,98832.00
2022-09-10T03:27:33.921Z,98817.00
2022-09-10T03:29:08.615Z,98819.00
2022-09-10T03:30:54.053Z,98825.00
2022-09-10T03:32:28.317Z,98820.00
2022-09-10T03:34:02.357Z,98825.00
2022-09-10T03:35:36.171Z,98823.00
2022-09-10T03:37:09.492Z,98826.00
2022-09-10T03:38:43.532Z,98822.00
2022-09-10T03:40:18.017Z,98815.00
2022-09-10T03:41:51.450Z,98827.00
2022-09-10T03:43:24.977Z,98823.00
2022-09-10T03:45:05.493Z,98816.00
2022-09-10T03:46:42.250Z,98817.00
2022-09-10T03:48:20.145Z,98822.00
2022-09-10T03:49:55.075Z,98821.00
2022-09-10T03:51:28.983Z,98807.00
2022-09-10T03:53:03.875Z,98803.00
2022-09-10T03:54:37.216Z,98820.00
2022-09-10T03:56:11.702Z,98820.00
2022-09-10T03:57:46.671Z,98830.00
2022-09-10T03:59:21.813Z,98828.00
2022-09-10T04:00:55.189Z,98826.00
2022-09-10T04:02:30.079Z,98827.00
2022-09-10T04:04:04.082Z,98819.00
2022-09-10T04:05:40.157Z,98822.00
2022-09-10T04:07:13.390Z,98828.00
2022-09-10T04:08:50.570Z,98827.00
2022-09-10T04:10:24.610Z,98826.00
2022-09-10T04:11:58.557Z,98828.00
2022-09-10T04:13:32.636Z,98830.00
2022-09-10T04:15:08.218Z,98827.00
2022-09-10T04:16:42.470Z,98827.00
2022-09-10T04:18:18.928Z,98829.00
2022-09-10T04:19:52.425Z,98817.00
2022-09-10T04:21:27.350Z,98832.00
2022-09-10T04:23:02.930Z,98821.00
2022-09-10T04:24:36.962Z,98834.00
2022-09-10T04:26:15.196Z,98826.00
2022-09-10T04:27:50.285Z,98834.00
2022-09-10T04:29:22.990Z,98834.00
2022-09-10T04:30:56.301Z,98828.00
2022-09-10T04:32:30.732Z,98831.00
2022-09-10T04:34:04.177Z,98830.00
2022-09-10T04:35:39.498Z,98833.00
2022-09-10T04:37:19.153Z,98836.00
2022-09-10T04:38:53.633Z,98833.00
2022-09-10T04:40:27.528Z,98839.00
2022-09-10T04:42:01.161Z,98834.00
2022-09-10T04:43:35.812Z,98845.00
2022-09-10T04:45:10.848Z,98847.00
2022-09-10T04:46:44.781Z,98843.00
2022-09-10T04:48:17.437Z,98840.00
2022-09-10T04:49:51.496Z,98841.00
2022-09-10T04:51:25.702Z,98840.00
2022-09-10T04:53:02.564Z,98847.00
2022-09-10T04:54:36.357Z,98837.00
2022-09-10T04:56:10.025Z,98837.00
2022-09-10T04:57:45.745Z,98849.00
2022-09-10T04:59:19.558Z,98848.00
2022-09-10T05:00:56.225Z,98846.00
2022-09-10T05:02:30.458Z,98849.00
2022-09-10T05:04:04.149Z,98847.00
2022-09-10T05:05:37.945Z,98846.00
2022-09-10T05:07:12.037Z,98841.00
2022-09-10T05:08:46.988Z,98846.00
2022-09-10T05:10:20.439Z,98846.00
2022-09-10T05:11:54.244Z,98855.00
2022-09-10T05:13:28.836Z,98849.00
2022-09-10T05:15:03.376Z,98850.00
2022-09-10T05:16:38.673Z,98843.00
2022-09-10T05:18:12.197Z,98852.00
2022-09-10T05:19:45.466Z,98850.00
2022-09-10T05:21:19.614Z,98845.00
2022-09-10T05:22:53.224Z,98846.00
2022-09-10T05:24:28.340Z,98853.00
2022-09-10T05:26:02.404Z,98848.00
2022-09-10T05:27:36.845Z,98847.00
2022-09-10T05:29:11.408Z,98843.00
2022-09-10T05:30:51.374Z,98845.00
2022-09-10T05:32:32.882Z,98850.00
2022-09-10T05:34:10.760Z,98843.00
2022-09-10T05:35:44.706Z,98857.00
2022-09-10T05:37:18.632Z,98857.00
2022-09-10T05:38:55.240Z,98854.00
2022-09-10T05:40:30.267Z,98844.00
2022-09-10T05:42:04.660Z,98845.00
2022-09-10T05:43:38.265Z,98845.00
2022-09-10T05:45:16.743Z,98857.00
2022-09-10T05:46:50.756Z,98853.00
2022-09-10T05:48:24.078Z,98860.00
2022-09-10T05:49:57.560Z,98858.00
2022-09-10T05:51:30.802Z,98852.00
2022-09-10T05:53:10.015Z,98857.00
2022-09-10T05:54:44.561Z,98857.00
2022-09-10T05:56:23.342Z,98860.00
2022-09-10T05:57:57.799Z,98859.00
2022-09-10T05:59:30.394Z,98861.00
2022-09-10T06:01:09.558Z,98861.00
2022-09-10T06:02:45.364Z,98855.00
2022-09-10T06:04:32.197Z,98854.00
2022-09-10T06:06:06.101Z,98875.00
2022-09-10T06:07:42.404Z,98867.00
2022-09-10T06:09:16.052Z,98864.00
2022-09-10T06:10:58.681Z,98865.00
2022-09-10T06:12:36.003Z,98859.00
2022-09-10T06:14:09.329Z,98870.00
2022-09-10T06:15:43.372Z,98867.00
2022-09-10T06:17:17.732Z,98878.00
2022-09-10T06:18:51.199Z,98882.00
2022-09-10T06:20:28.477Z,98880.00
2022-09-10T06:22:02.630Z,98880.00
2022-09-10T06:23:40.181Z,98887.00
2022-09-10T06:25:13.553Z,98880.00
2022-09-10T06:26:50.445Z,98899.00
2022-09-10T06:28:25.381Z,98890.00
2022-09-10T06:29:58.917Z,98886.00
2022-09-10T06:31:32.312Z,98894.00
2022-09-10T06:33:05.653Z,98889.00
2022-09-10T06:34:39.016Z,98890.00
2022-09-10T06:36:15.046Z,98892.00
2022-09-10T06:37:48.627Z,98893.00
2022-09-10T06:39:23.256Z,98894.00
2022-09-10T06:41:05.840Z,98899.00
2022-09-10T06:42:45.041Z,98897.00
2022-09-10T06:44:31.764Z,98893.00
2022-09-10T06:46:56.708Z,98906.00
2022-09-10T06:48:38.666Z,98897.00
2022-09-10T06:50:14.492Z,98898.00
2022-09-10T06:51:50.979Z,98896.00
2022-09-10T06:53:27.188Z,98901.00
2022-09-10T06:55:00.837Z,98904.00
2022-09-10T06:56:43.632Z,98896.00
2022-09-10T06:58:16.792Z,98898.00
2022-09-10T06:59:51.430Z,98901.00
2022-09-10T07:01:26.572Z,98907.00
2022-09-10T07:03:02.417Z,98904.00
2022-09-10T07:04:36.194Z,98902.00
2022-09-10T07:06:13.281Z,98902.00
2022-09-10T07:07:47.877Z,98913.00
2022-09-10T07:09:22.116Z,98901.00
2022-09-10T07:11:04.758Z,98900.00
2022-09-10T07:12:38.110Z,98901.00
2022-09-10T07:14:14.205Z,98907.00
2022-09-10T07:15:49.716Z,98898.00
2022-09-10T07:17:23.662Z,98904.00
2022-09-10T07:19:00.704Z,98902.00
2022-09-10T07:20:43.707Z,98898.00
2022-09-10T07:22:17.200Z,98902.00
2022-09-10T07:23:56.585Z,98910.00
2022-09-10T07:25:30.180Z,98910.00
2022-09-10T07:27:10.892Z,98913.00
2022-09-10T07:28:47.375Z,98902.00
2022-09-10T07:30:22.469Z,98907.00
2022-09-10T07:31:58.927Z,98907.00
2022-09-10T07:33:33.458Z,98914.00
2022-09-10T07:35:09.120Z,98910.00
2022-09-10T07:36:43.181Z,98912.00
2022-09-10T07:38:17.245Z,98908.00
2022-09-10T07:39:52.407Z,98917.00
2022-09-10T07:41:28.003Z,98911.00
2022-09-10T07:43:01.960Z,98919.00
2022-09-10T07:44:35.623Z,98918.00
2022-09-10T07:46:13.424Z,98912.00
2022-09-10T07:47:49.281Z,98920.00
2022-09-10T07:49:24.030Z,98921.00
2022-09-10T07:51:04.314Z,98923.00
2022-09-10T07:52:38.024Z,98928.00
2022-09-10T07:54:11.382Z,98926.00
2022-09-10T07:55:58.590Z,98931.00
2022-09-10T07:57:37.840Z,98929.00
2022-09-10T07:59:13.181Z,98930.00
2022-09-10T08:00:54.016Z,98935.00
2022-09-10T08:02:28.469Z,98935.00
2022-09-10T08:04:09.903Z,98932.00
2022-09-10T08:05:48.195Z,98923.00
2022-09-10T08:07:21.552Z,98931.00
2022-09-10T08:08:55.061Z,98937.00
2022-09-10T08:10:29.774Z,98938.00
2022-09-10T08:12:07.297Z,98926.00
2022-09-10T08:13:45.563Z,98940.00
2022-09-10T08:15:20.249Z,98940.00
2022-09-10T08:16:54.221Z,98935.00
2022-09-10T08:18:30.620Z,98931.00
2022-09-10T08:20:09.839Z,98937.00
2022-09-10T08:21:47.583Z,98943.00
2022-09-10T08:23:26.490Z,98936.00
2022-09-10T08:24:59.931Z,98952.00
2022-09-10T08:26:37.047Z,98956.00
2022-09-10T08:28:12.889Z,98954.00
2022-09-10T08:29:46.798Z,98953.00
2022-09-10T08:31:22.197Z,98958.00
2022-09-10T08:33:02.852Z,98953.00
2022-09-10T08:34:37.379Z,98951.00
2022-09-10T08:36:16.937Z,98953.00
2022-09-10T08:37:51.117Z,98952.00
2022-09-10T08:39:25.140Z,98951.00
2022-09-10T08:41:02.478Z,98957.00
2022-09-10T08:42:43.770Z,98942.00
2022-09-10T08:44:33.791Z,98950.00
2022-09-10T08:46:21.231Z,98945.00
2022-09-10T08:48:02.537Z,98951.00
2022-09-10T08:49:46.221Z,98946.00
2022-09-10T08:51:29.974Z,98944.00
2022-09-10T08:53:19.695Z,98952.00
2022-09-10T08:55:04.487Z,98948.00
2022-09-10T08:56:42.728Z,98951.00
2022-09-10T08:58:23.326Z,98951.00
2022-09-10T08:59:59.570Z,98962.00
2022-09-10T09:01:42.387Z,98955.00
2022-09-10T09:03:28.623Z,98952.00
2022-09-10T09:05:13.439Z,98956.00
2022-09-10T09:06:53.757Z,98960.00
2022-09-10T09:08:32.178Z,98965.00
2022-09-10T09:10:30.141Z,98965.00
2022-09-10T09:12:18.926Z,98962.00
2022-09-10T09:14:14.037Z,98961.00
2022-09-10T09:16:00.017Z,98955.00
2022-09-10T09:17:55.903Z,98957.00
2022-09-10T09:19:35.128Z,98958.00
2022-09-10T09:21:19.576Z,98955.00
2022-09-10T09:22:57.244Z,98954.00
2022-09-10T09:24:53.647Z,98957.00
2022-09-10T09:26:36.518Z,98945.00
2022-09-10T09:28:21.805Z,98955.00
2022-09-10T09:30:02.740Z,98947.00
2022-09-10T09:31:43.905Z,98956.00
2022-09-10T09:33:22.534Z,98949.00
2022-09-10T09:35:02.717Z,98952.00
2022-09-10T09:36:47.460Z,98955.00
2022-09-10T09:38:25.992Z,98954.00
2022-09-10T09:40:15.605Z,98955.00
2022-09-10T09:42:03.476Z,98948.00
2022-09-10T09:43:54.161Z,98952.00
2022-09-10T09:45:38.234Z,98943.00
2022-09-10T09:47:12.032Z,98943.00
2022-09-10T09:48:53.471Z,98950.00
2022-09-10T09:50:33.658Z,98952.00
2022-09-10T09:52:21.564Z,98945.00
2022-09-10T09:54:39.375Z,98949.00
2022-09-10T09:56:00.935Z,98951.00
2022-09-10T09:57:34.445Z,98950.00
2022-09-10T09:59:15.105Z,98944.00
2022-09-10T10:00:51.509Z,98947.00
2022-09-10T10:02:30.488Z,98949.00
2022-09-10T10:04:04.778Z,98949.00
2022-09-10T10:05:38.194Z,98946.00
2022-09-10T10:07:12.858Z,98952.00
2022-09-10T10:08:55.741Z,98954.00
2022-09-10T10:10:30.488Z,98948.00
2022-09-10T10:12:07.131Z,98942.00
2022-09-10T10:13:43.696Z,98937.00
2022-09-10T10:15:38.829Z,98945.00
2022-09-10T10:17:34.429Z,98947.00
2022-09-10T10:19:31.132Z,98942.00
2022-09-10T10:21:17.448Z,98935.00
2022-09-10T10:22:51.056Z,98938.00
2022-09-10T10:24:33.710Z,98941.00
2022-09-10T10:26:27.574Z,98942.00
2022-09-10T10:28:01.591Z,98925.00
2022-09-10T10:29:35.046Z,98929.00
2022-09-10T10:31:09.777Z,98931.00
2022-09-10T10:32:48.621Z,98928.00
2022-09-10T10:34:54.057Z,98933.00
2022-09-10T10:36:39.924Z,98927.00
2022-09-10T10:38:34.868Z,98930.00
2022-09-10T10:40:23.710Z,98919.00
2022-09-10T10:42:08.173Z,98925.00
2022-09-10T10:43:53.768Z,98932.00
2022-09-10T10:45:47.434Z,98926.00
2022-09-10T10:47:43.172Z,98935.00
2022-09-10T10:49:32.569Z,98929.00
2022-09-10T10:51:17.182Z,98928.00
2022-09-10T10:53:28.071Z,98928.00
2022-09-10T10:55:15.999Z,98925.00
2022-09-10T10:57:05.691Z,98917.00
2022-09-10T10:59:04.514Z,98922.00
2022-09-10T11:00:45.204Z,98924.00
2022-09-10T11:02:34.667Z,98921.00
2022-09-10T11:04:25.994Z,98930.00
2022-09-10T11:06:07.669Z,98922.00
2022-09-10T11:07:45.698Z,98915.00
2022-09-10T11:09:28.357Z,98920.00
2022-09-10T11:11:12.228Z,98920.00
2022-09-10T11:12:53.407Z,98929.00
2022-09-10T11:14:35.845Z,98925.00
2022-09-10T11:16:20.000Z,98918.00
2022-09-10T11:18:01.038Z,98925.00
2022-09-10T11:19:41.583Z,98932.00
2022-09-10T11:21:26.815Z,98930.00
2022-09-10T11:23:27.815Z,98920.00
2022-09-10T11:25:12.604Z,98919.00
2022-09-10T11:26:54.082Z,98920.00
2022-09-10T11:28:36.966Z,98917.00
2022-09-10T11:30:15.715Z,98915.00
2022-09-10T11:31:59.143Z,98922.00
2022-09-10T11:33:43.077Z,98904.00
2022-09-10T11:35:24.591Z,98901.00
2022-09-10T11:37:07.386Z,98909.00
2022-09-10T11:38:55.860Z,98903.00
2022-09-10T11:40:36.118Z,98893.00
2022-09-10T11:42:20.549Z,98899.00
2022-09-10T11:44:12.232Z,98897.00
2022-09-10T11:45:53.257Z,98895.00
2022-09-10T11:47:33.598Z,98901.00
2022-09-10T11:49:16.061Z,98906.00
2022-09-10T11:50:57.231Z,98896.00
2022-09-10T11:52:33.621Z,98894.00
2022-09-10T11:54:14.516Z,98901.00
2022-09-10T11:56:23.019Z,98886.00
2022-09-10T11:58:07.047Z,98892.00
2022-09-10T12:00:01.518Z,98886.00
2022-09-10T12:02:06.313Z,98908.00
2022-09-10T12:04:18.741Z,98903.00
2022-09-10T12:06:03.696Z,98911.00
2022-09-10T12:07:52.281Z,98909.00
2022-09-10T12:09:36.285Z,98912.00
2022-09-10T12:11:24.922Z,98912.00
2022-09-10T12:12:59.905Z,98905.00
2022-09-10T12:14:34.289Z,98902.00
2022-09-10T12:16:23.791Z,98908.00
2022-09-10T12:18:02.600Z,98917.00
2022-09-10T12:19:46.309Z,98919.00
2022-09-10T12:21:32.492Z,98918.00
2022-09-10T12:23:07.776Z,98922.00
2022-09-10T12:24:41.547Z,98922.00
2022-09-10T12:26:20.605Z,98918.00
2022-09-10T12:27:57.672Z,98900.00
2022-09-10T12:29:35.760Z,98898.00
2022-09-10T12:31:14.097Z,98906.00
2022-09-10T12:32:50.439Z,98918.00
2022-09-10T12:34:23.071Z,98903.00
2022-09-10T12:35:57.333Z,98919.00
2022-09-10T12:37:30.681Z,98922.00
2022-09-10T12:39:24.986Z,98915.00
2022-09-10T12:40:59.023Z,98918.00
2022-09-10T12:42:36.752Z,98918.00
2022-09-10T12:44:49.485Z,98929.00
2022-09-10T12:46:25.864Z,98926.00
2022-09-10T12:48:00.047Z,98934.00
2022-09-10T12:49:32.437Z,98921.00
2022-09-10T12:51:26.276Z,98933.00
2022-09-10T12:53:49.360Z,98930.00
2022-09-10T12:55:40.057Z,98923.00
2022-09-10T12:57:34.857Z,98921.00
2022-09-10T12:59:31.061Z,98920.00
2022-09-10T13:01:17.993Z,98933.00
2022-09-10T13:02:58.218Z,98927.00
2022-09-10T13:04:37.208Z,98926.00
2022-09-10T13:06:11.404Z,98919.00
2022-09-10T13:07:49.334Z,98920.00
2022-09-10T13:09:29.364Z,98923.00
2022-09-10T13:11:17.723Z,98927.00
2022-09-10T13:12:59.263Z,98920.00
2022-09-10T13:14:38.476Z,98926.00
2022-09-10T13:16:19.439Z,98928.00
2022-09-10T13:18:25.441Z,98922.00
2022-09-10T13:20:31.647Z,98919.00
2022-09-10T13:22:33.687Z,98914.00
2022-09-10T13:24:59.670Z,98911.00
2022-09-10T13:26:52.347Z,98913.00
2022-09-10T13:29:04.763Z,98919.00
2022-09-10T13:30:44.878Z,98921.00
2022-09-10T13:32:30.474Z,98917.00
2022-09-10T13:35:06.499Z,98922.00
2022-09-10T13:36:53.804Z,98918.00
2022-09-10T13:39:08.726Z,98914.00
2022-09-10T13:41:29.297Z,98919.00
2022-09-10T13:43:33.849Z,98906.00
2022-09-10T13:45:33.491Z,98910.00
2022-09-10T13:47:23.743Z,98915.00
2022-09-10T13:49:12.841Z,98913.00
2022-09-10T13:51:10.884Z,98920.00
2022-09-10T13:52:53.160Z,98909.00
2022-09-10T13:54:35.943Z,98912.00
2022-09-10T13:56:17.850Z,98909.00
2022-09-10T13:58:00.692Z,98905.00
2022-09-10T13:59:38.537Z,98898.00
2022-09-10T14:01:13.316Z,98907.00
2022-09-10T14:02:50.601Z,98903.00
2022-09-10T14:04:28.466Z,98902.00
2022-09-10T14:06:11.489Z,98898.00
2022-09-10T14:07:45.768Z,98900.00
2022-09-10T14:09:21.549Z,98897.00
2022-09-10T14:11:10.430Z,98890.00
2022-09-10T14:12:55.017Z,98888.00
2022-09-10T14:14:37.464Z,98910.00
2022-09-10T14:16:18.393Z,98906.00
2022-09-10T14:17:58.738Z,98910.00
2022-09-10T14:19:38.698Z,98903.00
2022-09-10T14:21:16.450Z,98895.00
2022-09-10T14:22:53.811Z,98899.00
2022-09-10T14:24:31.259Z,98888.00
2022-09-10T14:26:23.430Z,98895.00
2022-09-10T14:28:25.211Z,98893.00
2022-09-10T14:30:22.940Z,98887.00
2022-09-10T14:31:56.567Z,98888.00
2022-09-10T14:33:36.237Z,98884.00
2022-09-10T14:35:39.100Z,98887.00
2022-09-10T14:37:38.839Z,98890.00
2022-09-10T14:39:19.672Z,98886.00
2022-09-10T14:41:03.329Z,98879.00
2022-09-10T14:42:38.880Z,98878.00
2022-09-10T14:44:30.420Z,98884.00
2022-09-10T14:46:06.188Z,98885.00
2022-09-10T14:47:54.173Z,98885.00
2022-09-10T14:49:30.941Z,98887.00
2022-09-10T14:51:17.573Z,98893.00
2022-09-10T14:52:51.247Z,98891.00
2022-09-10T14:54:24.604Z,98889.00
2022-09-10T14:55:58.078Z,98882.00
2022-09-10T14:57:31.670Z,98880.00
2022-09-10T14:59:15.447Z,98883.00
2022-09-10T15:00:49.281Z,98883.00
2022-09-10T15:02:28.385Z,98882.00
2022-09-10T15:04:01.927Z,98896.00
2022-09-10T15:05:35.402Z,98896.00
2022-09-10T15:07:11.759Z,98893.00
2022-09-10T15:08:47.768Z,98892.00
2022-09-10T15:10:21.297Z,98896.00
2022-09-10T15:11:59.893Z,98898.00
2022-09-10T15:13:36.530Z,98899.00
2022-09-10T15:15:17.409Z,98899.00
2022-09-10T15:16:52.830Z,98899.00
2022-09-10T15:18:26.456Z,98900.00
2022-09-10T15:19:59.976Z,98899.00
2022-09-10T15:21:33.393Z,98906.00
2022-09-10T15:23:09.069Z,98900.00
2022-09-10T15:25:06.000Z,98898.00
2022-09-10T15:26:38.210Z,98902.00
2022-09-10T15:28:12.233Z,98901.00
2022-09-10T15:29:46.104Z,98914.00
2022-09-10T15:31:19.392Z,98905.00
2022-09-10T15:32:54.238Z,98905.00
2022-09-10T15:34:27.467Z,98902.00
2022-09-10T15:36:01.336Z,98904.00
2022-09-10T15:37:35.228Z,98899.00
2022-09-10T15:39:13.249Z,98906.00
2022-09-10T15:40:50.506Z,98914.00
2022-09-10T15:42:23.917Z,98915.00
2022-09-10T15:43:59.018Z,98920.00
2022-09-10T15:45:34.652Z,98910.00
2022-09-10T15:47:08.297Z,98915.00
2022-09-10T15:48:43.187Z,98910.00
2022-09-10T15:50:16.784Z,98911.00
2022-09-10T15:51:50.158Z,98908.00
2022-09-10T15:53:23.418Z,98909.00
2022-09-10T15:54:56.692Z,98909.00
2022-09-10T15:56:31.535Z,98904.00
2022-09-10T15:58:10.607Z,98902.00
2022-09-10T15:59:49.947Z,98912.00
2022-09-10T16:01:28.024Z,98906.00
2022-09-10T16:03:03.555Z,98910.00
2022-09-10T16:04:40.297Z,98913.00
2022-09-10T16:06:18.376Z,98909.00
2022-09-10T16:07:52.205Z,98907.00
2022-09-10T16:09:26.184Z,98898.00
2022-09-10T16:10:59.601Z,98908.00
2022-09-10T16:12:34.685Z,98897.00
2022-09-10T16:14:12.149Z,98916.00
2022-09-10T16:15:45.445Z,98910.00
2022-09-10T16:17:18.752Z,98907.00
2022-09-10T16:18:54.665Z,98920.00
2022-09-10T16:20:28.882Z,98911.00
2022-09-10T16:22:02.342Z,98912.00
2022-09-10T16:23:36.857Z,98918.00
2022-09-10T16:25:11.985Z,98914.00
2022-09-10T16:26:47.785Z,98926.00
2022-09-10T16:28:23.020Z,98922.00
2022-09-10T16:29:56.253Z,98924.00
2022-09-10T16:31:32.876Z,98927.00
2022-09-10T16:33:06.586Z,98928.00
2022-09-10T16:34:40.853Z,98931.00
2022-09-10T16:36:15.616Z,98931.00
2022-09-10T16:37:50.864Z,98934.00
2022-09-10T16:39:24.517Z,98931.00
2022-09-10T16:41:01.270Z,98929.00
2022-09-10T16:42:34.679Z,98932.00
2022-09-10T16:44:11.201Z,98939.00
2022-09-10T16:45:51.344Z,98944.00
2022-09-10T16:47:24.928Z,98942.00
2022-09-10T16:48:59.469Z,98937.00
2022-09-10T16:50:33.897Z,98935.00
2022-09-10T16:52:07.685Z,98943.00
2022-09-10T16:53:42.760Z,98937.00
2022-09-10T16:55:16.970Z,98937.00
2022-09-10T16:56:51.580Z,98946.00
2022-09-10T16:58:25.112Z,98953.00
2022-09-10T17:00:00.373Z,98952.00
2022-09-10T17:01:33.913Z,98966.00
2022-09-10T17:03:08.771Z,98964.00
2022-09-10T17:04:42.681Z,98967.00
2022-09-10T17:06:18.137Z,98968.00
2022-09-10T17:07:51.968Z,98969.00
2022-09-10T17:09:26.082Z,98973.00
2022-09-10T17:11:00.302Z,98972.00
2022-09-10T17:12:33.709Z,98972.00
2022-09-10T17:14:08.140Z,98971.00
2022-09-10T17:15:44.724Z,98977.00
2022-09-10T17:17:18.826Z,98980.00
2022-09-10T17:18:58.258Z,98986.00
2022-09-10T17:20:31.478Z,98984.00
2022-09-10T17:22:05.380Z,98983.00
2022-09-10T17:23:39.077Z,98984.00
2022-09-10T17:25:13.632Z,98987.00
2022-09-10T17:26:46.960Z,98993.00
2022-09-10T17:28:21.422Z,98994.00
2022-09-10T17:29:54.926Z,99001.00
2022-09-10T17:31:31.482Z,98994.00
2022-09-10T17:33:05.955Z,99003.00
2022-09-10T17:34:39.367Z,98995.00
2022-09-10T17:36:12.721Z,98998.00
2022-09-10T17:37:47.164Z,98999.00
2022-09-10T17:39:21.216Z,98995.00
2022-09-10T17:40:58.164Z,99000.00
2022-09-10T17:42:32.071Z,99007.00
2022-09-10T17:44:05.385Z,99004.00
2022-09-10T17:45:39.060Z,98996.00
2022-09-10T17:47:13.774Z,99005.00
2022-09-10T17:48:48.274Z,99005.00
2022-09-10T17:50:21.953Z,99004.00
2022-09-10T17:51:55.261Z,99009.00
2022-09-10T17:53:29.600Z,99009.00
2022-09-10T17:55:02.758Z,99007.00
2022-09-10T17:56:38.155Z,99002.00
2022-09-10T17:58:12.738Z,99005.00
2022-09-10T17:59:46.432Z,99006.00
2022-09-10T18:01:24.374Z,99003.00
2022-09-10T18:02:59.128Z,99013.00
2022-09-10T18:04:32.958Z,99019.00
2022-09-10T18:06:08.490Z,99018.00
2022-09-10T18:07:42.532Z,99022.00
2022-09-10T18:09:16.756Z,99014.00
2022-09-10T18:10:50.853Z,99017.00
2022-09-10T18:12:24.281Z,99021.00
2022-09-10T18:13:59.706Z,99020.00
2022-09-10T18:15:33.106Z,99031.00
2022-09-10T18:17:06.608Z,99034.00
2022-09-10T18:18:41.661Z,99036.00
2022-09-10T18:20:15.173Z,99036.00
2022-09-10T18:21:50.977Z,99040.00
2022-09-10T18:23:23.903Z,99052.00
2022-09-10T18:24:57.421Z,99038.00
2022-09-10T18:26:34.586Z,99041.00
2022-09-10T18:28:08.666Z,99058.00
2022-09-10T18:29:42.938Z,99057.00
2022-09-10T18:31:16.416Z,99061.00
2022-09-10T18:32:51.973Z,99067.00
2022-09-10T18:34:30.069Z,99066.00
2022-09-10T18:36:14.571Z,99077.00
2022-09-10T18:37:49.987Z,99065.00
2022-09-10T18:39:26.095Z,99076.00
2022-09-10T18:40:58.661Z,99082.00
2022-09-10T18:42:32.292Z,99080.00
2022-09-10T18:44:09.098Z,99082.00
2022-09-10T18:45:42.570Z,99092.00
2022-09-10T18:47:34.009Z,99095.00
2022-09-10T18:49:08.635Z,99098.00
2022-09-10T18:50:43.544Z,99105.00
2022-09-10T18:52:17.630Z,99106.00
2022-09-10T18:53:55.586Z,99108.00
2022-09-10T18:55:29.017Z,99118.00
2022-09-10T18:57:02.446Z,99125.00
2022-09-10T18:58:35.882Z,99124.00
2022-09-10T19:00:12.612Z,99118.00
2022-09-10T19:01:46.417Z,99123.00
2022-09-10T19:03:20.118Z,99129.00
2022-09-10T19:05:10.660Z,99117.00
2022-09-10T19:06:48.975Z,99131.00
2022-09-10T19:08:22.438Z,99133.00
2022-09-10T19:09:55.940Z,99136.00
2022-09-10T19:11:33.412Z,99144.00
2022-09-10T19:13:07.368Z,99143.00
2022-09-10T19:14:41.395Z,99144.00
2022-09-10T19:16:15.314Z,99149.00
2022-09-10T19:17:48.756Z,99144.00
2022-09-10T19:19:24.467Z,99144.00
2022-09-10T19:21:03.090Z,99154.00
2022-09-10T19:22:39.348Z,99153.00
2022-09-10T19:24:13.450Z,99156.00
2022-09-10T19:25:53.459Z,99159.00